Time;durP1;ratioP1;P1;durP2;ratioP2;P2;SDS_P1;SDS_P2;PMS_P1;PMS_P2;Temp;Humidity;BMP_temperature;BMP_pressure;BME280_temperature;BME280_humidity;BME280_pressure;Samples;Min_cycle;Max_cycle;Signal;HPM_P1;HPM_P2
2022/03/03 00:02:03;;;;;;;87.63;42.97;;;2.60;99.90;;;;;;4926299;28;20767;-55
2022/03/03 00:04:29;;;;;;;77.45;41.95;;;2.60;99.90;;;;;;4930310;28;20080;-55
2022/03/03 00:06:55;;;;;;;76.22;41.35;;;2.60;99.90;;;;;;4926995;28;20130;-54
2022/03/03 00:09:20;;;;;;;77.03;39.97;;;2.60;99.90;;;;;;4927405;28;20079;-55
2022/03/03 00:11:46;;;;;;;70.90;40.20;;;2.60;99.90;;;;;;4931092;28;20130;-56
2022/03/03 00:14:12;;;;;;;75.38;40.72;;;2.60;99.90;;;;;;4932013;28;20070;-56
2022/03/03 00:16:38;;;;;;;87.20;43.83;;;2.60;99.90;;;;;;4926562;28;20157;-52
2022/03/03 00:19:04;;;;;;;75.00;40.60;;;2.60;99.90;;;;;;4933439;28;20043;-53
2022/03/03 00:21:29;;;;;;;86.70;44.63;;;2.60;99.90;;;;;;4929543;28;20570;-54
2022/03/03 00:23:55;;;;;;;83.43;44.28;;;2.60;99.90;;;;;;4929123;28;20083;-53
2022/03/03 00:26:21;;;;;;;80.78;43.00;;;2.60;99.90;;;;;;4932209;28;20087;-55
2022/03/03 00:28:47;;;;;;;79.05;41.13;;;2.60;99.90;;;;;;4931805;28;20039;-56
2022/03/03 00:31:12;;;;;;;86.85;46.03;;;2.50;99.90;;;;;;4936141;28;20043;-52
2022/03/03 00:33:38;;;;;;;79.70;43.83;;;2.50;99.90;;;;;;4928786;28;20969;-52
2022/03/03 00:36:04;;;;;;;83.85;42.63;;;2.50;99.90;;;;;;4936475;28;20043;-54
2022/03/03 00:38:30;;;;;;;87.10;45.15;;;2.50;99.90;;;;;;4921828;29;20461;-53
2022/03/03 00:40:56;;;;;;;93.63;45.90;;;2.50;99.90;;;;;;4928436;28;20184;-56
2022/03/03 00:43:21;;;;;;;76.57;39.92;;;2.50;99.90;;;;;;4930773;28;20035;-53
2022/03/03 00:45:47;;;;;;;72.85;39.60;;;2.50;99.90;;;;;;4916549;28;20043;-54
2022/03/03 00:48:13;;;;;;;84.18;44.38;;;2.40;99.90;;;;;;4935197;28;20128;-57
2022/03/03 00:50:39;;;;;;;81.38;42.45;;;2.40;99.90;;;;;;4936659;28;20522;-57
2022/03/03 00:53:05;;;;;;;72.07;40.53;;;2.30;99.90;;;;;;4938994;28;20088;-56
2022/03/03 00:55:31;;;;;;;87.80;44.33;;;2.30;99.90;;;;;;4934807;28;20351;-56
2022/03/03 00:57:56;;;;;;;82.10;44.08;;;2.30;99.90;;;;;;4930349;28;20051;-52
2022/03/03 01:00:22;;;;;;;79.25;44.08;;;2.20;99.90;;;;;;4938810;28;20044;-52
2022/03/03 01:02:49;;;;;;;92.43;47.78;;;2.20;99.90;;;;;;4939890;28;20043;-53
2022/03/03 01:05:16;;;;;;;95.28;46.85;;;2.20;99.90;;;;;;4933986;28;20146;-57
2022/03/03 01:07:42;;;;;;;78.18;42.10;;;2.10;99.90;;;;;;4936724;28;20080;-55
2022/03/03 01:10:09;;;;;;;85.88;44.65;;;2.10;99.90;;;;;;4936364;28;20089;-55
2022/03/03 01:12:36;;;;;;;90.30;46.60;;;2.10;99.90;;;;;;4933638;28;20044;-55
2022/03/03 01:15:04;;;;;;;90.72;45.17;;;2.10;99.90;;;;;;4933244;28;20229;-53
2022/03/03 01:17:29;;;;;;;89.25;45.53;;;2.10;99.90;;;;;;4920426;28;20447;-54
2022/03/03 01:19:55;;;;;;;80.53;41.47;;;2.10;99.90;;;;;;4932285;28;20047;-53
2022/03/03 01:22:21;;;;;;;83.93;45.75;;;2.20;99.90;;;;;;4937155;28;20051;-55
2022/03/03 01:24:46;;;;;;;92.60;46.50;;;2.20;99.90;;;;;;4933846;28;20051;-55
2022/03/03 01:27:12;;;;;;;91.43;46.15;;;2.10;99.90;;;;;;4932558;28;20050;-52
2022/03/03 01:29:39;;;;;;;85.07;44.15;;;2.10;99.90;;;;;;4922819;29;20483;-52
2022/03/03 01:32:06;;;;;;;89.45;45.13;;;2.10;99.90;;;;;;4930833;28;20039;-58
2022/03/03 01:34:32;;;;;;;95.18;46.80;;;2.10;99.90;;;;;;4930127;28;20055;-54
2022/03/03 01:36:58;;;;;;;94.68;47.30;;;2.10;99.90;;;;;;4932691;28;20654;-52
2022/03/03 01:39:24;;;;;;;91.57;46.03;;;2.10;99.90;;;;;;4927354;28;20502;-56
2022/03/03 01:41:50;;;;;;;92.60;48.28;;;2.10;99.90;;;;;;4924097;28;20051;-56
2022/03/03 01:44:16;;;;;;;88.35;44.90;;;2.10;99.90;;;;;;4930528;28;20090;-55
2022/03/03 01:46:53;;;;;;;89.95;46.00;;;2.10;99.90;;;;;;4930698;28;20510;-51
2022/03/03 01:49:19;;;;;;;80.07;41.03;;;2.10;99.90;;;;;;4913914;28;20098;-52
2022/03/03 01:51:45;;;;;;;84.40;45.72;;;2.00;99.90;;;;;;4931697;28;20045;-52
2022/03/03 01:54:12;;;;;;;88.35;45.33;;;2.10;99.90;;;;;;4928964;28;20051;-51
2022/03/03 01:56:40;;;;;;;82.20;42.25;;;2.10;99.90;;;;;;4935944;28;20055;-53
2022/03/03 01:59:06;;;;;;;94.05;47.63;;;2.10;99.90;;;;;;4929531;28;20392;-55
2022/03/03 02:01:32;;;;;;;85.68;43.60;;;2.10;99.90;;;;;;4919716;29;20035;-54
2022/03/03 02:03:58;;;;;;;88.60;45.60;;;2.00;99.90;;;;;;4926080;28;20518;-55
2022/03/03 02:06:25;;;;;;;93.88;48.33;;;2.00;99.90;;;;;;4932949;28;20039;-53
2022/03/03 02:08:54;;;;;;;91.80;46.53;;;2.00;99.90;;;;;;4939837;28;20046;-54
2022/03/03 02:11:20;;;;;;;87.70;46.90;;;2.00;99.90;;;;;;4934591;28;20039;-56
2022/03/03 02:13:46;;;;;;;83.55;42.92;;;2.00;99.90;;;;;;4929849;28;20130;-55
2022/03/03 02:16:12;;;;;;;84.40;44.83;;;2.00;99.90;;;;;;4930254;28;20130;-54
2022/03/03 02:18:42;;;;;;;88.43;45.80;;;2.00;99.90;;;;;;4936124;28;20467;-54
2022/03/03 02:21:13;;;;;;;106.05;50.85;;;2.00;99.90;;;;;;4928636;28;20047;-55
2022/03/03 02:23:40;;;;;;;95.70;48.63;;;2.00;99.90;;;;;;4932397;28;20223;-55
2022/03/03 02:26:14;;;;;;;86.00;44.58;;;1.90;99.90;;;;;;4934776;28;20130;-54
2022/03/03 02:28:42;;;;;;;94.45;47.95;;;1.90;99.90;;;;;;4933789;28;20154;-54
2022/03/03 02:31:07;;;;;;;97.55;48.00;;;1.90;99.90;;;;;;4932272;28;20090;-52
2022/03/03 02:33:33;;;;;;;95.85;46.05;;;1.90;99.90;;;;;;4930944;28;20187;-55
2022/03/03 02:36:21;;;;;;;86.40;43.92;;;1.80;99.90;;;;;;4927796;28;20474;-54
2022/03/03 02:38:49;;;;;;;91.85;46.65;;;1.80;99.90;;;;;;4928289;28;20410;-54
2022/03/03 02:41:15;;;;;;;89.95;46.78;;;1.80;99.90;;;;;;4932369;28;20058;-54
2022/03/03 02:43:41;;;;;;;88.30;46.38;;;1.80;99.90;;;;;;4935132;28;20540;-54
2022/03/03 02:46:07;;;;;;;96.78;47.35;;;1.70;99.90;;;;;;4933615;28;20067;-56
2022/03/03 02:48:34;;;;;;;98.18;46.15;;;1.80;99.90;;;;;;4934159;28;20043;-56
2022/03/03 02:51:00;;;;;;;90.47;46.10;;;1.70;99.90;;;;;;4933400;28;20043;-53
2022/03/03 02:53:26;;;;;;;101.88;49.67;;;1.70;99.90;;;;;;4936551;28;20047;-55
2022/03/03 02:55:52;;;;;;;95.72;48.17;;;1.70;99.90;;;;;;4934283;28;20075;-54
2022/03/03 02:58:18;;;;;;;88.95;44.47;;;1.70;99.90;;;;;;4933811;28;20089;-54
2022/03/03 03:00:44;;;;;;;95.15;47.00;;;1.60;99.90;;;;;;4930519;28;20052;-51
2022/03/03 03:03:10;;;;;;;90.38;44.90;;;1.60;99.90;;;;;;4929390;28;20051;-55
2022/03/03 03:05:36;;;;;;;84.75;43.00;;;1.60;99.90;;;;;;4935798;28;20078;-55
2022/03/03 03:08:04;;;;;;;88.30;44.78;;;1.60;99.90;;;;;;4981493;23;20200;-55
2022/03/03 03:10:30;;;;;;;91.35;45.75;;;1.50;99.90;;;;;;4988353;28;20115;-56
2022/03/03 03:12:56;;;;;;;101.72;48.65;;;1.50;99.90;;;;;;4987917;28;20046;-53
2022/03/03 03:15:22;;;;;;;82.78;43.42;;;1.50;99.90;;;;;;4993266;28;20036;-54
2022/03/03 03:17:48;;;;;;;93.07;46.10;;;1.50;99.90;;;;;;4991714;28;20050;-56
2022/03/03 03:20:14;;;;;;;80.63;42.67;;;1.50;99.90;;;;;;4987005;28;20103;-55
2022/03/03 03:22:40;;;;;;;81.47;44.50;;;1.50;99.90;;;;;;4992306;28;20444;-53
2022/03/03 03:25:08;;;;;;;94.60;47.45;;;1.50;99.90;;;;;;4982931;28;20068;-54
2022/03/03 03:27:35;;;;;;;93.43;45.75;;;1.50;99.90;;;;;;4985499;28;20050;-55
2022/03/03 03:30:01;;;;;;;86.70;45.13;;;1.40;99.90;;;;;;4986675;28;20084;-52
2022/03/03 03:32:26;;;;;;;85.93;42.85;;;1.40;99.90;;;;;;4989230;28;20124;-54
2022/03/03 03:34:52;;;;;;;92.72;48.22;;;1.40;99.90;;;;;;4982091;28;21124;-56
2022/03/03 03:37:18;;;;;;;89.53;47.25;;;1.40;99.90;;;;;;4990754;28;20054;-53
2022/03/03 03:39:43;;;;;;;94.72;49.42;;;1.40;99.90;;;;;;4988565;28;20145;-51
2022/03/03 03:42:09;;;;;;;83.20;43.03;;;1.40;99.90;;;;;;4989091;28;20050;-55
2022/03/03 03:44:35;;;;;;;88.70;47.88;;;1.30;99.90;;;;;;4986900;28;20044;-55
2022/03/03 03:47:01;;;;;;;85.68;45.22;;;1.30;99.90;;;;;;4981274;28;20080;-55
2022/03/03 03:49:28;;;;;;;85.90;45.58;;;1.30;99.90;;;;;;4988927;28;20038;-52
2022/03/03 03:51:53;;;;;;;92.10;46.85;;;1.30;99.90;;;;;;4988752;28;20042;-53
2022/03/03 03:54:19;;;;;;;84.45;44.85;;;1.30;99.90;;;;;;4985893;28;20030;-55
2022/03/03 03:56:45;;;;;;;84.72;44.70;;;1.30;99.90;;;;;;4990786;28;20048;-51
2022/03/03 03:59:11;;;;;;;83.80;44.55;;;1.30;99.90;;;;;;4982709;28;20489;-51
2022/03/03 04:01:37;;;;;;;70.97;39.15;;;1.30;99.90;;;;;;4983274;28;20038;-54
2022/03/03 04:04:03;;;;;;;81.55;42.92;;;1.20;99.90;;;;;;4972634;28;20409;-51
2022/03/03 04:06:29;;;;;;;78.50;42.00;;;1.20;99.90;;;;;;4989324;28;20053;-54
2022/03/03 04:08:54;;;;;;;77.63;42.00;;;1.20;99.90;;;;;;4997375;28;20038;-54
2022/03/03 04:11:20;;;;;;;82.93;43.47;;;1.20;99.90;;;;;;4984405;28;20098;-52
2022/03/03 04:13:46;;;;;;;79.55;43.13;;;1.20;99.90;;;;;;4987788;28;20042;-52
2022/03/03 04:16:11;;;;;;;80.97;45.92;;;1.20;99.90;;;;;;4994463;28;20046;-52
2022/03/03 04:18:37;;;;;;;84.50;44.60;;;1.20;99.90;;;;;;4991705;28;20042;-56
2022/03/03 04:21:04;;;;;;;75.68;42.00;;;1.20;99.90;;;;;;4979347;28;20038;-55
2022/03/03 04:23:29;;;;;;;85.45;44.45;;;1.20;99.90;;;;;;4994220;28;20048;-53
2022/03/03 04:25:55;;;;;;;85.80;44.38;;;1.20;99.90;;;;;;4998792;28;20101;-55
2022/03/03 04:28:21;;;;;;;78.72;42.35;;;1.20;99.90;;;;;;4994465;28;20053;-55
2022/03/03 04:30:48;;;;;;;79.13;42.15;;;1.20;99.90;;;;;;4992137;28;20120;-55
2022/03/03 04:33:14;;;;;;;73.30;40.53;;;1.20;99.90;;;;;;4996791;28;20108;-55
2022/03/03 04:35:40;;;;;;;79.50;43.35;;;1.20;99.90;;;;;;4995474;28;20034;-57
2022/03/03 04:38:06;;;;;;;81.40;42.28;;;1.20;99.90;;;;;;4987828;28;20041;-55
2022/03/03 04:40:32;;;;;;;80.63;42.90;;;1.20;99.90;;;;;;4996780;28;20042;-52
2022/03/03 04:42:58;;;;;;;80.07;42.42;;;1.20;99.90;;;;;;5002009;28;20034;-56
2022/03/03 04:45:24;;;;;;;81.53;42.22;;;1.10;99.90;;;;;;4995060;28;20460;-54
2022/03/03 04:47:50;;;;;;;81.25;42.58;;;1.10;99.90;;;;;;4980462;28;20050;-51
2022/03/03 04:50:16;;;;;;;80.32;41.03;;;1.10;99.90;;;;;;4993299;28;20058;-53
2022/03/03 04:52:42;;;;;;;72.07;39.80;;;1.10;99.90;;;;;;4981076;28;20049;-52
2022/03/03 04:55:08;;;;;;;74.95;41.00;;;1.10;99.90;;;;;;4995436;28;20419;-54
2022/03/03 04:57:35;;;;;;;68.30;37.97;;;1.00;99.90;;;;;;4992715;28;20493;-55
2022/03/03 05:00:00;;;;;;;70.70;37.88;;;1.00;99.90;;;;;;4984280;28;20052;-55
2022/03/03 05:02:26;;;;;;;68.60;38.20;;;1.00;99.90;;;;;;4976896;28;21288;-55
2022/03/03 05:04:52;;;;;;;66.00;38.15;;;1.00;99.90;;;;;;4990036;28;20081;-57
2022/03/03 05:07:19;;;;;;;64.05;37.28;;;1.00;99.90;;;;;;4980716;28;20167;-51
2022/03/03 05:09:45;;;;;;;66.43;37.85;;;0.90;99.90;;;;;;4991289;28;20042;-54
2022/03/03 05:12:11;;;;;;;66.05;37.45;;;0.90;99.90;;;;;;4994902;28;20499;-55
2022/03/03 05:14:36;;;;;;;65.65;36.95;;;0.90;99.90;;;;;;4994583;28;20085;-53
2022/03/03 05:17:02;;;;;;;65.03;36.42;;;0.90;99.90;;;;;;4979697;28;20248;-55
2022/03/03 05:19:28;;;;;;;66.45;37.03;;;0.80;99.90;;;;;;4998124;28;20259;-53
2022/03/03 05:21:54;;;;;;;66.85;36.58;;;0.90;99.90;;;;;;4993113;28;20124;-56
2022/03/03 05:24:20;;;;;;;64.03;35.80;;;0.90;99.90;;;;;;4997967;28;20048;-54
2022/03/03 05:26:45;;;;;;;60.25;35.30;;;0.90;99.90;;;;;;4998862;28;20107;-54
2022/03/03 05:29:11;;;;;;;63.63;36.33;;;0.90;99.90;;;;;;5001191;28;20042;-55
2022/03/03 05:31:36;;;;;;;57.20;32.83;;;0.80;99.90;;;;;;4981452;28;22437;-53
2022/03/03 05:34:03;;;;;;;61.80;35.70;;;0.80;99.90;;;;;;4983404;28;20055;-52
2022/03/03 05:36:30;;;;;;;66.22;35.53;;;0.80;99.90;;;;;;4995192;28;20042;-54
2022/03/03 05:38:57;;;;;;;61.20;35.58;;;0.80;99.90;;;;;;4996776;28;20041;-55
2022/03/03 05:41:23;;;;;;;62.42;35.95;;;0.70;99.90;;;;;;4992097;28;20451;-54
2022/03/03 05:43:50;;;;;;;59.55;33.38;;;0.70;99.90;;;;;;4997881;28;20473;-54
2022/03/03 05:46:16;;;;;;;59.70;33.20;;;0.70;99.90;;;;;;4996710;28;20489;-51
2022/03/03 05:48:42;;;;;;;61.28;35.25;;;0.70;99.90;;;;;;4995908;28;20128;-52
2022/03/03 05:51:10;;;;;;;64.03;35.08;;;0.70;99.90;;;;;;4999050;28;20103;-52
2022/03/03 05:53:36;;;;;;;67.28;37.10;;;0.70;99.90;;;;;;4978338;28;20393;-55
2022/03/03 05:56:07;;;;;;;71.05;36.42;;;0.70;99.90;;;;;;4976758;28;20045;-52
2022/03/03 05:58:48;;;;;;;64.85;36.00;;;0.70;99.90;;;;;;4988877;28;21681;-56
2022/03/03 06:01:16;;;;;;;62.20;36.05;;;0.70;99.90;;;;;;5000465;28;20057;-54
2022/03/03 06:03:42;;;;;;;58.65;33.17;;;0.70;99.90;;;;;;4974457;28;20056;-55
2022/03/03 06:06:14;;;;;;;59.28;33.63;;;0.70;99.90;;;;;;4983679;28;20058;-54
2022/03/03 06:08:46;;;;;;;60.67;34.42;;;0.70;99.90;;;;;;4986294;28;20485;-55
2022/03/03 06:11:16;;;;;;;64.75;35.00;;;0.70;99.90;;;;;;4991932;28;20131;-56
2022/03/03 06:13:50;;;;;;;64.55;35.40;;;0.70;99.90;;;;;;4982301;28;20329;-56
2022/03/03 06:16:20;;;;;;;62.70;35.42;;;0.70;99.90;;;;;;4987200;28;20056;-53
2022/03/03 06:18:47;;;;;;;57.50;32.90;;;0.70;99.90;;;;;;4987819;28;20683;-52
2022/03/03 06:21:14;;;;;;;58.15;32.45;;;0.70;99.90;;;;;;4988301;28;20046;-53
2022/03/03 06:23:40;;;;;;;52.50;29.27;;;0.70;99.90;;;;;;4989619;28;20602;-53
2022/03/03 06:26:12;;;;;;;56.83;33.10;;;0.70;99.90;;;;;;4988482;28;20035;-52
2022/03/03 06:28:38;;;;;;;60.13;33.63;;;0.80;99.90;;;;;;4990653;28;20049;-53
2022/03/03 06:31:06;;;;;;;57.33;33.33;;;0.80;99.90;;;;;;4983456;28;20057;-56
2022/03/03 06:33:33;;;;;;;59.45;33.58;;;0.80;99.90;;;;;;4973218;28;20054;-54
2022/03/03 06:35:59;;;;;;;57.58;33.83;;;0.80;99.90;;;;;;4990659;28;20115;-56
2022/03/03 06:38:26;;;;;;;63.03;36.38;;;0.80;99.90;;;;;;4988044;28;20077;-53
2022/03/03 06:40:54;;;;;;;57.63;35.45;;;0.80;99.90;;;;;;4987489;28;20153;-54
2022/03/03 06:43:19;;;;;;;57.85;34.67;;;0.80;99.90;;;;;;4991093;28;20048;-56
2022/03/03 06:45:45;;;;;;;56.22;33.95;;;0.80;99.90;;;;;;4990090;28;20037;-54
2022/03/03 06:48:11;;;;;;;53.55;32.47;;;0.80;99.90;;;;;;4992508;28;20392;-55
2022/03/03 06:50:40;;;;;;;59.78;34.15;;;0.80;99.90;;;;;;4974529;28;20496;-55
2022/03/03 06:53:09;;;;;;;58.63;33.53;;;0.90;99.90;;;;;;4989721;28;20136;-53
2022/03/03 06:55:36;;;;;;;61.15;33.50;;;0.90;99.90;;;;;;4987161;28;20621;-54
2022/03/03 06:58:03;;;;;;;62.25;32.17;;;0.90;99.90;;;;;;4985593;28;20054;-54
2022/03/03 07:00:34;;;;;;;60.10;34.08;;;0.90;99.90;;;;;;4986087;28;20116;-52
2022/03/03 07:03:05;;;;;;;56.90;32.80;;;0.90;99.90;;;;;;4986635;28;20511;-52
2022/03/03 07:05:30;;;;;;;63.13;35.65;;;0.90;99.90;;;;;;4988545;28;20048;-54
2022/03/03 07:07:57;;;;;;;57.17;33.78;;;1.10;99.90;;;;;;4988157;28;20046;-55
2022/03/03 07:10:24;;;;;;;53.92;32.55;;;1.50;99.90;;;;;;4986477;28;20058;-55
2022/03/03 07:12:55;;;;;;;55.40;31.90;;;2.10;99.90;;;;;;4996258;28;20061;-55
2022/03/03 07:15:25;;;;;;;54.17;32.22;;;2.50;99.90;;;;;;4986625;28;20099;-55
2022/03/03 07:17:55;;;;;;;57.55;33.17;;;2.80;99.90;;;;;;4991127;28;20042;-54
2022/03/03 07:20:40;;;;;;;63.85;34.63;;;3.30;99.90;;;;;;4988851;28;20303;-52
2022/03/03 07:23:22;;;;;;;71.28;36.30;;;3.50;99.90;;;;;;4984782;28;20129;-54
2022/03/03 07:25:54;;;;;;;71.35;38.63;;;3.70;99.90;;;;;;4986869;28;20046;-56
2022/03/03 07:28:21;;;;;;;56.22;33.30;;;3.40;99.90;;;;;;4982665;28;20038;-56
2022/03/03 07:30:50;;;;;;;55.60;34.90;;;3.00;99.90;;;;;;4983393;28;20132;-53
2022/03/03 07:33:23;;;;;;;59.72;34.20;;;2.60;99.90;;;;;;4976486;28;20042;-54
2022/03/03 07:35:49;;;;;;;50.50;30.25;;;2.40;99.90;;;;;;4985844;28;20073;-52
2022/03/03 07:38:19;;;;;;;52.50;31.10;;;2.20;99.90;;;;;;4999283;28;20173;-53
2022/03/03 07:40:48;;;;;;;48.38;28.55;;;2.20;99.90;;;;;;4981963;28;20161;-53
2022/03/03 07:43:16;;;;;;;47.40;29.38;;;2.20;99.90;;;;;;4986203;28;20045;-53
2022/03/03 07:45:45;;;;;;;51.30;29.80;;;2.20;99.90;;;;;;4985871;28;20103;-55
2022/03/03 07:48:12;;;;;;;52.15;31.13;;;2.20;99.90;;;;;;4989751;28;20042;-52
2022/03/03 07:50:39;;;;;;;49.28;31.30;;;2.20;99.90;;;;;;4979639;28;20046;-57
2022/03/03 07:53:10;;;;;;;45.58;30.27;;;2.20;99.90;;;;;;4987312;28;20073;-55
2022/03/03 07:55:45;;;;;;;53.22;31.90;;;2.20;99.90;;;;;;4986561;28;20389;-52
2022/03/03 07:58:17;;;;;;;45.50;29.73;;;2.30;99.90;;;;;;4984106;28;20138;-55
2022/03/03 08:00:48;;;;;;;49.67;31.65;;;2.30;99.90;;;;;;4973881;28;20054;-51
2022/03/03 08:03:21;;;;;;;48.17;29.80;;;2.40;99.90;;;;;;4986872;28;20037;-55
2022/03/03 08:05:54;;;;;;;45.42;28.55;;;2.50;99.90;;;;;;4985877;28;20538;-52
2022/03/03 08:08:21;;;;;;;;;;;2.60;99.90;;;;;;4982867;28;20046;-56
2022/03/03 08:10:48;;;;;;;47.50;28.08;;;2.70;99.90;;;;;;4986095;28;19975;-56
2022/03/03 08:13:17;;;;;;;45.47;27.15;;;2.80;99.90;;;;;;4979436;28;20041;-52
2022/03/03 08:15:44;;;;;;;50.35;30.20;;;2.90;99.90;;;;;;4981977;28;20142;-56
2022/03/03 08:18:11;;;;;;;50.15;29.20;;;3.00;99.90;;;;;;4993685;28;20501;-55
2022/03/03 08:20:38;;;;;;;48.00;29.02;;;3.10;99.90;;;;;;4989225;28;20030;-54
2022/03/03 08:23:06;;;;;;;48.65;28.55;;;3.20;99.90;;;;;;4978602;28;20052;-54
2022/03/03 08:25:34;;;;;;;48.20;29.88;;;3.30;99.90;;;;;;4987515;28;20053;-52
2022/03/03 08:28:02;;;;;;;53.03;32.22;;;3.30;99.90;;;;;;4979026;28;20092;-52
2022/03/03 08:30:28;;;;;;;47.55;28.38;;;3.40;99.90;;;;;;4999206;28;20052;-54
2022/03/03 08:33:04;;;;;;;45.22;29.02;;;3.40;99.90;;;;;;4981735;28;20038;-52
2022/03/03 08:35:36;;;;;;;45.58;28.65;;;3.50;99.90;;;;;;4993987;28;20065;-52
2022/03/03 08:38:35;;;;;;;44.85;29.52;;;3.50;99.90;;;;;;4998559;28;20592;-55
2022/03/03 08:41:04;;;;;;;43.80;29.00;;;3.70;99.90;;;;;;4990776;28;20397;-54
2022/03/03 08:43:32;;;;;;;46.80;28.33;;;3.80;99.90;;;;;;4998117;28;22290;-54
2022/03/03 08:46:05;;;;;;;46.35;27.67;;;3.80;99.90;;;;;;4983424;28;20052;-53
2022/03/03 08:48:32;;;;;;;43.90;27.73;;;4.00;99.90;;;;;;4987441;28;20042;-55
2022/03/03 08:51:00;;;;;;;43.08;27.63;;;4.00;99.90;;;;;;4989316;28;20413;-55
2022/03/03 08:53:26;;;;;;;41.63;27.00;;;4.20;99.90;;;;;;4982822;28;20042;-55
2022/03/03 08:55:58;;;;;;;44.65;27.98;;;4.20;99.90;;;;;;4982667;28;20477;-55
2022/03/03 08:58:25;;;;;;;45.90;27.48;;;4.40;99.90;;;;;;4981754;28;20493;-54
2022/03/03 09:00:51;;;;;;;45.38;27.20;;;4.40;99.90;;;;;;4991194;28;20095;-54
2022/03/03 09:03:22;;;;;;;41.25;26.55;;;4.50;99.90;;;;;;4988201;28;20164;-59
2022/03/03 09:05:49;;;;;;;42.63;27.30;;;4.60;99.90;;;;;;4985300;28;20042;-53
2022/03/03 09:08:15;;;;;;;42.78;27.02;;;4.60;99.90;;;;;;4989536;28;20045;-54
2022/03/03 09:10:41;;;;;;;40.28;26.98;;;4.80;99.90;;;;;;4981372;28;20164;-54
2022/03/03 09:13:07;;;;;;;44.30;26.85;;;4.90;99.90;;;;;;4984901;28;20038;-54
2022/03/03 09:15:33;;;;;;;37.35;25.23;;;5.00;99.90;;;;;;4994490;28;20582;-51
2022/03/03 09:18:00;;;;;;;38.05;24.02;;;5.10;99.90;;;;;;4993694;28;21673;-62
2022/03/03 09:20:26;;;;;;;37.55;25.17;;;5.10;99.90;;;;;;4971373;28;20057;-56
2022/03/03 09:22:53;;;;;;;35.22;24.60;;;5.30;99.90;;;;;;4994409;28;20041;-54
2022/03/03 09:25:19;;;;;;;37.42;23.92;;;5.40;99.60;;;;;;4978770;28;20041;-54
2022/03/03 09:27:45;;;;;;;38.88;24.73;;;5.50;99.10;;;;;;4986565;28;20046;-53
2022/03/03 09:30:12;;;;;;;37.95;23.17;;;5.60;98.90;;;;;;4976281;28;20033;-55
2022/03/03 09:32:38;;;;;;;34.28;23.95;;;5.80;98.40;;;;;;4981875;28;20062;-60
2022/03/03 09:35:05;;;;;;;34.92;22.38;;;5.90;98.00;;;;;;4982822;28;20367;-56
2022/03/03 09:37:30;;;;;;;38.53;23.60;;;6.00;97.40;;;;;;4973770;28;20044;-56
2022/03/03 09:39:56;;;;;;;33.67;22.27;;;6.20;97.60;;;;;;4977361;28;20041;-55
2022/03/03 09:42:22;;;;;;;31.40;21.83;;;6.30;97.80;;;;;;4987727;28;20428;-53
2022/03/03 09:44:48;;;;;;;30.60;21.17;;;6.50;96.90;;;;;;4980293;28;20074;-54
2022/03/03 09:47:16;;;;;;;34.28;22.35;;;6.50;96.40;;;;;;4980259;28;20177;-60
2022/03/03 09:49:42;;;;;;;31.00;21.13;;;6.60;96.50;;;;;;4980470;28;20099;-56
2022/03/03 09:52:16;;;;;;;33.47;22.70;;;6.80;95.30;;;;;;4984462;28;20050;-57
2022/03/03 09:54:43;;;;;;;29.77;20.42;;;6.90;95.60;;;;;;4983407;28;20034;-55
2022/03/03 09:57:10;;;;;;;30.27;21.17;;;7.00;94.50;;;;;;4978529;28;20490;-54
2022/03/03 09:59:35;;;;;;;31.60;20.63;;;7.20;94.90;;;;;;4984611;28;20104;-62
2022/03/03 10:02:05;;;;;;;32.90;22.27;;;7.30;93.90;;;;;;4964285;28;20597;-55
2022/03/03 10:04:32;;;;;;;27.50;20.65;;;7.40;93.50;;;;;;4980709;28;20164;-55
2022/03/03 10:07:06;;;;;;;36.40;23.25;;;7.40;93.30;;;;;;4980607;28;20137;-56
2022/03/03 10:09:32;;;;;;;31.50;20.88;;;7.60;93.20;;;;;;4996159;28;22286;-51
2022/03/03 10:11:59;;;;;;;38.85;24.60;;;7.60;92.50;;;;;;4976766;28;20045;-60
2022/03/03 10:14:28;;;;;;;53.72;31.23;;;7.70;91.80;;;;;;4995588;28;20564;-57
2022/03/03 10:16:54;;;;;;;34.63;23.50;;;7.90;92.90;;;;;;4974007;28;20050;-54
2022/03/03 10:19:20;;;;;;;29.90;20.65;;;8.00;90.90;;;;;;4982624;28;20065;-56
2022/03/03 10:21:45;;;;;;;33.92;22.95;;;8.00;91.60;;;;;;4964377;28;20129;-55
2022/03/03 10:24:21;;;;;;;29.70;21.58;;;8.20;91.90;;;;;;4984018;28;20121;-55
2022/03/03 10:26:59;;;;;;;30.98;20.88;;;8.30;91.20;;;;;;4966832;28;22710;-57
2022/03/03 10:29:26;;;;;;;30.20;21.60;;;8.30;89.20;;;;;;4981381;28;20062;-53
2022/03/03 10:31:54;;;;;;;30.08;20.58;;;8.40;90.70;;;;;;4982949;28;20042;-55
2022/03/03 10:34:22;;;;;;;29.23;19.50;;;8.40;90.30;;;;;;4982898;28;20053;-53
2022/03/03 10:36:57;;;;;;;27.00;20.00;;;8.60;90.00;;;;;;4979922;28;20405;-61
2022/03/03 10:39:23;;;;;;;27.55;20.05;;;8.60;85.40;;;;;;4983855;28;20473;-56
2022/03/03 10:41:53;;;;;;;25.42;18.63;;;8.60;87.50;;;;;;4987068;28;20111;-55
2022/03/03 10:44:27;;;;;;;25.42;18.38;;;8.80;86.80;;;;;;4989739;28;20034;-55
2022/03/03 10:47:07;;;;;;;25.75;17.75;;;8.80;82.60;;;;;;4988123;28;20137;-59
2022/03/03 10:49:35;;;;;;;27.08;19.48;;;8.70;83.60;;;;;;4988724;28;20042;-54
2022/03/03 10:52:16;;;;;;;25.35;18.75;;;8.90;85.30;;;;;;4981842;28;20424;-55
2022/03/03 10:54:48;;;;;;;26.50;18.80;;;9.20;85.60;;;;;;4986058;28;20135;-52
2022/03/03 10:57:33;;;;;;;25.95;17.30;;;9.40;84.40;;;;;;4988056;28;20046;-55
2022/03/03 11:00:00;;;;;;;24.20;16.50;;;9.60;84.60;;;;;;4982176;28;20288;-55
2022/03/03 11:02:29;;;;;;;21.88;16.25;;;9.80;82.10;;;;;;4978230;28;20069;-52
2022/03/03 11:04:56;;;;;;;25.73;17.90;;;9.90;82.10;;;;;;4983077;28;20575;-61
2022/03/03 11:07:23;;;;;;;24.83;16.52;;;10.10;80.70;;;;;;4985407;28;20038;-56
2022/03/03 11:09:50;;;;;;;21.10;15.85;;;9.90;76.50;;;;;;4985732;28;20120;-55
2022/03/03 11:12:16;;;;;;;24.10;15.43;;;9.90;77.20;;;;;;4982397;28;20468;-55
2022/03/03 11:14:43;;;;;;;22.52;16.60;;;10.10;77.30;;;;;;4979245;28;20053;-58
2022/03/03 11:17:10;;;;;;;21.60;15.20;;;10.20;74.80;;;;;;4972777;28;20116;-53
2022/03/03 11:19:38;;;;;;;22.98;16.23;;;10.30;76.80;;;;;;4961860;28;20733;-60
2022/03/03 11:22:04;;;;;;;19.65;14.73;;;10.50;75.40;;;;;;4988644;28;20127;-53
2022/03/03 11:24:32;;;;;;;22.13;16.02;;;10.60;75.00;;;;;;4984749;28;20038;-56
2022/03/03 11:27:02;;;;;;;21.08;14.93;;;10.80;72.90;;;;;;4985522;28;20058;-52
2022/03/03 11:29:30;;;;;;;19.88;14.63;;;10.90;73.10;;;;;;4995905;28;20042;-54
2022/03/03 11:32:03;;;;;;;19.67;14.85;;;11.00;74.20;;;;;;4987223;28;20073;-64
2022/03/03 11:34:32;;;;;;;21.50;15.20;;;10.90;71.10;;;;;;4978269;28;20038;-52
2022/03/03 11:37:09;;;;;;;18.38;14.18;;;11.00;70.20;;;;;;4972270;28;20419;-52
2022/03/03 11:40:03;;;;;;;19.27;14.10;;;11.00;73.40;;;;;;4983271;28;20088;-55
2022/03/03 11:42:38;;;;;;;17.83;14.20;;;11.10;70.80;;;;;;4992163;28;20378;-52
2022/03/03 11:45:13;;;;;;;20.33;14.60;;;11.00;68.30;;;;;;4979722;28;20513;-56
2022/03/03 11:47:48;;;;;;;21.58;14.10;;;11.00;70.80;;;;;;4984422;28;20525;-50
2022/03/03 11:50:32;;;;;;;23.45;14.93;;;11.10;70.60;;;;;;4991302;28;20044;-57
2022/03/03 11:52:59;;;;;;;19.63;13.48;;;11.10;66.60;;;;;;4995005;28;20054;-54
2022/03/03 11:55:56;;;;;;;27.85;15.60;;;11.00;66.50;;;;;;4991308;28;20548;-55
2022/03/03 11:58:27;;;;;;;17.30;11.95;;;11.10;66.20;;;;;;4985295;28;20047;-55
2022/03/03 12:00:59;;;;;;;16.83;12.20;;;11.00;67.50;;;;;;4992638;28;20051;-56
2022/03/03 12:03:29;;;;;;;16.95;12.35;;;11.10;65.00;;;;;;4991569;28;20045;-53
2022/03/03 12:06:05;;;;;;;16.90;11.98;;;11.00;66.30;;;;;;4990472;28;20045;-55
2022/03/03 12:08:32;;;;;;;15.38;11.65;;;11.10;68.70;;;;;;4980040;28;20081;-54
2022/03/03 12:11:01;;;;;;;16.05;12.18;;;11.30;69.70;;;;;;4990579;28;20038;-54
2022/03/03 12:13:48;;;;;;;18.17;12.25;;;11.40;65.80;;;;;;4979706;28;20489;-54
2022/03/03 12:16:13;;;;;;;13.23;10.45;;;11.30;67.00;;;;;;4994576;28;20129;-56
2022/03/03 12:18:41;;;;;;;17.02;11.20;;;11.30;64.60;;;;;;4989602;28;20188;-54
2022/03/03 12:21:26;;;;;;;14.45;10.75;;;11.40;66.60;;;;;;4996047;28;20400;-54
2022/03/03 12:24:28;;;;;;;15.48;12.15;;;11.50;68.80;;;;;;4992964;28;20398;-55
2022/03/03 12:26:59;;;;;;;16.38;12.50;;;11.70;66.10;;;;;;4995404;28;20073;-51
2022/03/03 12:29:48;;;;;;;18.73;11.70;;;11.90;66.50;;;;;;4993416;28;20038;-59
2022/03/03 12:32:32;;;;;;;17.83;12.90;;;11.70;65.50;;;;;;4990007;28;20053;-54
2022/03/03 12:35:20;;;;;;;18.98;13.57;;;11.80;66.80;;;;;;4997115;28;20053;-54
2022/03/03 12:37:47;;;;;;;27.60;18.42;;;11.80;67.00;;;;;;4994095;28;21047;-55
2022/03/03 12:40:15;;;;;;;25.35;17.45;;;11.90;67.50;;;;;;4984669;28;20037;-52
2022/03/03 12:42:45;;;;;;;20.70;15.27;;;11.90;67.70;;;;;;4992854;28;20121;-53